M I D A S
Marine Information and Data Acquisition System
Tripno 149 of the Zeeleeuw from 2001-08-14 05:36:19 to 2001-08-14 20:05:00
Back to CruiseResearch ActivitiesStationsMapUnderway DataData graphs

EquipmentUnitsComment
TimeDGPSUTC
LatitudeDGPSDM.mWGS84
LongitudeDGPSDM.mWGS84
HeadingGyrodeg 
SOGDGPSknotsSpeed over ground
COGDGPSdegCourse over ground
DepthEcho soundermeters200 kHz
Missing or incorrect values are displayed as -999
Navigation data collected by the RV Zeeleeuw from 2001-08-14 05:36:19 to 2001-08-14 20:05:00
                                                                                    Next 1000 lines
Time Latitude Longitude Heading SOG COG Depth
2001-08-14 05:36:29 51°13.676 2°55.919 0.2 0.1 334.3 -999
2001-08-14 05:36:35 51°13.676 2°55.92     346.9 -999
2001-08-14 05:36:39 51°13.676 2°55.92     359.3 -999
2001-08-14 05:36:45 51°13.676 2°55.92     24.9 -999
2001-08-14 05:36:50 51°13.676 2°55.92     30.3 -999
2001-08-14 05:36:55 51°13.676 2°55.92     350.8 -999
2001-08-14 05:36:59 51°13.676 2°55.92     343.6 -999
2001-08-14 05:37:05 51°13.676 2°55.921     336.6 -999
2001-08-14 05:37:09 51°13.676 2°55.921     336 -999
2001-08-14 05:37:15 51°13.676 2°55.921     348.8 -999
2001-08-14 05:37:19 51°13.676 2°55.921 359.8   38.9 -999
2001-08-14 05:37:25 51°13.675 2°55.922 359.8   354.6 -999
2001-08-14 05:37:29 51°13.675 2°55.922 359.8   354 -999
2001-08-14 06:47:13 51°13.679 2°55.927 129.8   186.6 8.5
2001-08-14 06:47:17 51°13.679 2°55.927 129.8   196.7 8.1
2001-08-14 06:47:21 51°13.679 2°55.927 129.8   188.8 8.2
2001-08-14 06:47:27 51°13.679 2°55.926 130   277.3 8.3
2001-08-14 06:47:33 51°13.677 2°55.925 130   330.4 8.3
2001-08-14 06:47:37 51°13.677 2°55.925 129.8   164.6 8.1
2001-08-14 06:47:43 51°13.678 2°55.925 129.8   158.8 8.3
2001-08-14 06:47:47 51°13.678 2°55.925 129.8   135.9 8.3
2001-08-14 06:47:53 51°13.678 2°55.925 129.8   284 8.3
2001-08-14 06:47:57 51°13.678 2°55.925 129.8   241.8 8.1
2001-08-14 06:48:03 51°13.678 2°55.924 129.8   198.3 8.1
2001-08-14 06:48:07 51°13.678 2°55.924 130   188.8 8.5
2001-08-14 06:48:12 51°13.678 2°55.924 130   157 8.5
2001-08-14 06:48:17 51°13.677 2°55.924 130   28.5 8.6
2001-08-14 06:48:23 51°13.677 2°55.924 130   5.5 8.6
2001-08-14 06:48:27 51°13.677 2°55.924 129.8   353.5 8.6
2001-08-14 06:48:33 51°13.678 2°55.924 129.8   2.8 8.5
2001-08-14 06:48:37 51°13.678 2°55.924 129.8   7.4 8.3
2001-08-14 06:48:43 51°13.678 2°55.924 129.8   28.7 8.6
2001-08-14 06:48:48 51°13.678 2°55.924 130   93.5 8.5
2001-08-14 06:48:53 51°13.678 2°55.924 130   178.6 8.6
2001-08-14 06:48:57 51°13.678 2°55.924 130   188.6 8.6
2001-08-14 06:49:03 51°13.678 2°55.924 129.8   177.4 8.5
2001-08-14 06:49:07 51°13.678 2°55.924 129.8   164.9 -999
2001-08-14 06:49:13 51°13.678 2°55.924 129.8   0.8 8.3
2001-08-14 06:49:17 51°13.678 2°55.924 129.8   355.3 8.4
2001-08-14 06:49:23 51°13.678 2°55.924 129.8   359.6 8.2
2001-08-14 06:49:27 51°13.678 2°55.924 129.8   318.7 8.1
2001-08-14 06:49:32 51°13.678 2°55.924 130   251.8 8.1
2001-08-14 06:49:37 51°13.678 2°55.923 130   207.7 8.1
2001-08-14 06:49:41 51°13.678 2°55.923 130   271.4 8.3
2001-08-14 06:49:47 51°13.678 2°55.923 130   308.6 8.3
2001-08-14 06:49:53 51°13.678 2°55.923 130   296 8.2
2001-08-14 06:49:57 51°13.678 2°55.923 130   7.5 8.5
2001-08-14 06:50:03 51°13.678 2°55.923 130   14.6 8.3
2001-08-14 06:50:07 51°13.678 2°55.923 130   117.1 8.6
2001-08-14 06:50:13 51°13.678 2°55.923 130   55.1 8.3
2001-08-14 06:50:17 51°13.678 2°55.923 129.8   111.7 8.2
2001-08-14 06:50:23 51°13.678 2°55.923 129.8   180.9 8.2
2001-08-14 06:50:27 51°13.678 2°55.923 130   232.4 8.5
2001-08-14 06:50:33 51°13.678 2°55.923 130   173.9 8.6
2001-08-14 06:50:37 51°13.678 2°55.923 130   177.5 8.3
2001-08-14 06:50:43 51°13.678 2°55.923 130   171 8.2
2001-08-14 06:50:47 51°13.678 2°55.923 130   146.5 8.2
2001-08-14 06:50:53 51°13.678 2°55.923 130   47 8.5
2001-08-14 06:50:57 51°13.678 2°55.923 129.8   187.4 8.2
2001-08-14 06:51:03 51°13.678 2°55.923 129.8   178.1 7.8
2001-08-14 06:51:07 51°13.678 2°55.923 129.8   20.6 8
2001-08-14 06:51:13 51°13.678 2°55.923 129.8   17.9 7.9
2001-08-14 06:51:18 51°13.678 2°55.923 129.8   12.1 7.9
2001-08-14 06:51:23 51°13.678 2°55.923 129.8   26.6 7.5
2001-08-14 06:51:28 51°13.678 2°55.923 130   172.4 7.6
2001-08-14 06:51:33 51°13.678 2°55.923 130   186.2 6.8
2001-08-14 06:51:37 51°13.678 2°55.923 130   179 7.5
2001-08-14 06:51:41 51°13.678 2°55.923 130   6.4 7.8
2001-08-14 06:51:48 51°13.678 2°55.923 130.2   138.1 7.8
2001-08-14 06:51:53 51°13.678 2°55.923 130.2   181.5 8
2001-08-14 06:51:57 51°13.678 2°55.923 130.2   135.1 8.1
2001-08-14 06:52:03 51°13.678 2°55.923 130.2   129.1 7.9
2001-08-14 06:52:07 51°13.678 2°55.923 130.2   336.8 7.6
2001-08-14 06:52:13 51°13.678 2°55.923 130.2   337.2 7.4
2001-08-14 06:52:17 51°13.678 2°55.923 130.2   319.4 -999
2001-08-14 06:52:23 51°13.678 2°55.923 130.2   235.8 6.9
2001-08-14 06:52:28 51°13.678 2°55.923 130.2   25.5 -999
2001-08-14 06:52:33 51°13.678 2°55.923 130.2   150.3 7.4
2001-08-14 06:52:37 51°13.678 2°55.923 130.3   169 6
2001-08-14 06:52:41 51°13.678 2°55.923 130.3   180.3 7.4
2001-08-14 06:52:47 51°13.678 2°55.924 130.5   190.8 7.4
2001-08-14 06:52:53 51°13.678 2°55.924 130.8   193.4 -999
2001-08-14 06:52:57 51°13.677 2°55.924 131   204.1 8.6
2001-08-14 06:53:03 51°13.677 2°55.923 131.2   173.5 8.4
2001-08-14 06:53:07 51°13.677 2°55.923 131.2   169.8 8.1
2001-08-14 06:53:13 51°13.677 2°55.924 131.3   229.8 8.3
2001-08-14 06:53:17 51°13.677 2°55.924 131.3   313.7 7.7
2001-08-14 06:53:23 51°13.677 2°55.924 131.3   57.1 7.7
2001-08-14 06:53:27 51°13.677 2°55.924 131.3   141.9 7.7
2001-08-14 06:53:33 51°13.677 2°55.924 131.3   6.3 8.5
2001-08-14 06:53:37 51°13.677 2°55.924 131.2   3.2 7.2
2001-08-14 06:53:43 51°13.677 2°55.924 131.2   18.7 8.4
2001-08-14 06:53:47 51°13.676 2°55.924 131.2   169.4 8.1
2001-08-14 06:53:53 51°13.676 2°55.924 131.2   174.1 7.8
2001-08-14 06:53:57 51°13.676 2°55.924 131.2   18 6.8
2001-08-14 06:54:03 51°13.676 2°55.924 131.2   20.3 -999
2001-08-14 06:54:07 51°13.676 2°55.924 131.2   357.3 8.6
2001-08-14 06:54:13 51°13.676 2°55.924 131.2   3.2 8.7
2001-08-14 06:54:17 51°13.676 2°55.924 131.2   175 8.7
2001-08-14 06:54:23 51°13.676 2°55.924 131.2   199.1 8.6
2001-08-14 06:54:27 51°13.676 2°55.924 131.2   264.9 8.6
2001-08-14 06:54:33 51°13.676 2°55.924 131.2   351.3 8.7
2001-08-14 06:54:37 51°13.676 2°55.924 131.2   352.1 8.7
2001-08-14 06:54:43 51°13.676 2°55.924 131.2   357 8.7
2001-08-14 06:54:47 51°13.676 2°55.924 131.2   348.1 8.7
2001-08-14 06:54:53 51°13.676 2°55.924 131.2   189.2 8.7
2001-08-14 06:54:57 51°13.676 2°55.924 131.3   180.4 8.6
2001-08-14 06:55:03 51°13.676 2°55.924 131.5   188.5 8.7
2001-08-14 06:55:07 51°13.676 2°55.924 131.7   186.1 8.7
2001-08-14 06:55:13 51°13.676 2°55.924 132   206.8 8.7
2001-08-14 06:55:17 51°13.676 2°55.924 132   249.6 8.7
2001-08-14 06:55:23 51°13.676 2°55.924 132   346.9 8.7
2001-08-14 06:55:27 51°13.676 2°55.924 132   348 8.7
2001-08-14 06:55:33 51°13.676 2°55.924 132   341.5 8.7
2001-08-14 06:55:37 51°13.676 2°55.923 132   178 8.7
2001-08-14 06:55:43 51°13.676 2°55.924 132   172.9 8.5
2001-08-14 06:55:48 51°13.676 2°55.924 132   163.2 8.7
2001-08-14 06:55:53 51°13.676 2°55.924 132.2   140.1 8.7
2001-08-14 06:55:57 51°13.676 2°55.924 132.2   151.9 8.7
2001-08-14 06:56:01 51°13.676 2°55.924 132.2 0.1 141.7 8.7
2001-08-14 06:56:07 51°13.676 2°55.924 132.3 0.1 135.4 8.7
2001-08-14 06:56:13 51°13.676 2°55.925 132.3 0.1 128.2 8.7
2001-08-14 06:56:17 51°13.676 2°55.925 132.2 0.2 122.4 8.7
2001-08-14 06:56:23 51°13.676 2°55.925 132 0.2 117.8 8.7
2001-08-14 06:56:28 51°13.675 2°55.926 131.5 0.2 108.1 8.7
2001-08-14 06:56:33 51°13.675 2°55.926 131 0.2 103.9 8.7
2001-08-14 06:56:37 51°13.676 2°55.926 130.5 0.1 101 8.7
2001-08-14 06:56:43 51°13.676 2°55.926 129.8 0.1 107 8.7
2001-08-14 06:56:47 51°13.676 2°55.926 129.3   78 8.6
2001-08-14 06:56:53 51°13.676 2°55.926 129.3   322.3 8.7
2001-08-14 06:56:57 51°13.676 2°55.926 129.3   253.2 8.7
2001-08-14 06:57:03 51°13.676 2°55.926 129.5   317 8.7
2001-08-14 06:57:07 51°13.676 2°55.926 129.7   268.2 8.7
2001-08-14 06:57:13 51°13.676 2°55.926 130   259.2 8.7
2001-08-14 06:57:17 51°13.676 2°55.926 130.3   271.6 8.7
2001-08-14 06:57:23 51°13.676 2°55.926 130.5   282 8.7
2001-08-14 06:57:27 51°13.676 2°55.926 130.7   318.3 8.7
2001-08-14 06:57:33 51°13.676 2°55.926 130.8   8.9 8.7
2001-08-14 06:57:37 51°13.676 2°55.926 130.7   122.4 8.7
2001-08-14 06:57:41 51°13.676 2°55.926 130.7   22.9 8.7
2001-08-14 06:57:47 51°13.676 2°55.926 130.7   293.8 8.7
2001-08-14 06:57:53 51°13.675 2°55.925 130.7   209.9 8.7
2001-08-14 06:57:57 51°13.675 2°55.925 130.7   158.4 8.7
2001-08-14 06:58:03 51°13.676 2°55.926 130.7   165.5 8.7
2001-08-14 06:58:07 51°13.676 2°55.926 130.5   90.5 8.7
2001-08-14 06:58:12 51°13.676 2°55.926 130.3   89.3 8.7
2001-08-14 06:58:17 51°13.676 2°55.926 129.8 0.1 90.3 8.7
2001-08-14 06:58:21 51°13.676 2°55.926 129.3   102.8 8.7
2001-08-14 06:58:27 51°13.676 2°55.926 128.8   170.4 8.7
2001-08-14 06:58:33 51°13.676 2°55.926 128.3   160.7 8.7
2001-08-14 06:58:37 51°13.676 2°55.926 127.7   152.6 8.7
2001-08-14 06:58:43 51°13.676 2°55.926 127   155.2 8.7
2001-08-14 06:58:47 51°13.676 2°55.926 126.2   153.2 8.7
2001-08-14 06:58:53 51°13.676 2°55.927 125.5   158.5 8.7
2001-08-14 06:58:57 51°13.676 2°55.927 124.8   153.2 8.7
2001-08-14 06:59:01 51°13.676 2°55.927 124.2   162.5 8.7
2001-08-14 06:59:07 51°13.676 2°55.927 123.3   167 8.7
2001-08-14 06:59:13 51°13.676 2°55.927 122.7 0.1 169.3 8.7
2001-08-14 06:59:17 51°13.676 2°55.927 122 0.1 176.6 8.7
2001-08-14 06:59:23 51°13.676 2°55.927 121.2 0.1 175.9 8.7
2001-08-14 06:59:27 51°13.676 2°55.927 120.5 0.1 170.2 8.7
2001-08-14 06:59:31 51°13.676 2°55.927 119.7 0.1 170.7 8.7
2001-08-14 06:59:37 51°13.675 2°55.927 118.8 0.1 166.3 8.7
2001-08-14 06:59:43 51°13.675 2°55.927 118.2 0.1 165.5 8.7
2001-08-14 06:59:47 51°13.675 2°55.928 117.3   165.3 8.7
2001-08-14 06:59:53 51°13.675 2°55.928 116.7   170.3 8.7
2001-08-14 06:59:57 51°13.675 2°55.928 115.8 0.1 169.4 8.7
2001-08-14 07:00:01 51°13.675 2°55.928 115   166.8 8.7
2001-08-14 07:00:07 51°13.675 2°55.928 114.3   161.6 8.7
2001-08-14 07:00:13 51°13.675 2°55.928 113.8   165.7 8.7
2001-08-14 07:00:17 51°13.675 2°55.928 113.3   218.4 8.7
2001-08-14 07:00:23 51°13.675 2°55.927 113 0.1 273.8 8.7
2001-08-14 07:00:27 51°13.675 2°55.927 112.7 0.1 285.4 8.7
2001-08-14 07:00:33 51°13.675 2°55.926 112.3 0.2 288.3 8.7
2001-08-14 07:00:37 51°13.675 2°55.926 112 0.3 293.2 8.7
2001-08-14 07:00:43 51°13.675 2°55.925 111.7 0.3 297 8.7
2001-08-14 07:00:47 51°13.676 2°55.924 111.2 0.4 296.5 8.8
2001-08-14 07:00:52 51°13.676 2°55.923 110.7 0.5 296 8.8
2001-08-14 07:00:57 51°13.677 2°55.922 110.2 0.6 296.2 8.9
2001-08-14 07:01:03 51°13.677 2°55.919 109.5 0.8 294.1 9.1
2001-08-14 07:01:07 51°13.678 2°55.917 109 1 293.2 9.2
2001-08-14 07:01:13 51°13.678 2°55.914 108.7 1.1 292 9.4
2001-08-14 07:01:17 51°13.679 2°55.912 108.2 1.3 291.6 8.5
2001-08-14 07:01:23 51°13.68 2°55.908 107.7 1.6 290 -999
2001-08-14 07:01:29 51°13.681 2°55.903 107.2 1.8 289.4 -999
2001-08-14 07:01:33 51°13.682 2°55.899 106.5 2 288.7 -999
2001-08-14 07:01:39 51°13.683 2°55.893 105.8 2.2 287.9 -999
2001-08-14 07:01:43 51°13.684 2°55.889 104.8 2.3 286.7 -999
2001-08-14 07:01:48 51°13.685 2°55.884 103.8 2.5 285.9 -999
2001-08-14 07:01:53 51°13.686 2°55.878 102.3 2.7 284.8 -999
2001-08-14 07:01:59 51°13.686 2°55.87 101 2.8 283.6 -999
2001-08-14 07:02:03 51°13.687 2°55.865 99.5 2.9 281.3 -999
2001-08-14 07:02:09 51°13.688 2°55.857 98 3 279.2 -999
2001-08-14 07:02:13 51°13.688 2°55.851 96.8 3.1 277.5 -999
2001-08-14 07:02:19 51°13.689 2°55.843 95.7 3.2 276.8 -999
2001-08-14 07:02:23 51°13.689 2°55.837 94.8 3.2 275.8 -999
2001-08-14 07:02:29 51°13.689 2°55.829 93.8 3.2 275 -999
2001-08-14 07:02:33 51°13.689 2°55.822 92.8 3.4 273.5 -999
2001-08-14 07:02:39 51°13.69 2°55.813 92 3.5 272.7 -999
2001-08-14 07:02:43 51°13.69 2°55.807 91.2 3.6 271.8 -999
2001-08-14 07:02:49 51°13.69 2°55.798 90.3 3.5 270.9 -999
2001-08-14 07:02:53 51°13.69 2°55.792 89.7 3.4 270.5 -999
2001-08-14 07:02:59 51°13.69 2°55.784 88.8 3.3 269.9 -999
2001-08-14 07:03:03 51°13.69 2°55.778 88 3.2 269.3 13.5
2001-08-14 07:03:07 51°13.69 2°55.772 87.2 3.2 268.8 15.4
2001-08-14 07:03:13 51°13.689 2°55.763 86.3 3.3 268.2 15.7
2001-08-14 07:03:17 51°13.689 2°55.758 85.3 3.2 267.6 -999
2001-08-14 07:03:23 51°13.689 2°55.75 84 3 267.2 -999
2001-08-14 07:03:29 51°13.689 2°55.742 82.7 3 266.7 15.8
2001-08-14 07:03:33 51°13.688 2°55.737 81.3 2.8 265.7 15.3
2001-08-14 07:03:37 51°13.688 2°55.733 80.2 2.7 264.7 15.3
2001-08-14 07:03:41 51°13.688 2°55.728 79 2.6 264.6 15.5
2001-08-14 07:03:47 51°13.688 2°55.724 77.2 2.1 265.6 14.2
2001-08-14 07:03:52 51°13.688 2°55.722 73.3 1.5 268.7 14.3
2001-08-14 07:03:57 51°13.688 2°55.721 68 0.7 295.7 14.3
2001-08-14 07:04:03 51°13.69 2°55.723 61.5 0.6 0.4 14.3
2001-08-14 07:04:07 51°13.692 2°55.725 52.8 1.6 30.4 15.3
2001-08-14 07:04:12 51°13.696 2°55.727 43.3 2.2 30.3 15.2
2001-08-14 07:04:17 51°13.7 2°55.73 32.8 3.1 24.3 15.2
2001-08-14 07:04:23 51°13.707 2°55.732 24 3.5 18.4 14.6
2001-08-14 07:04:27 51°13.711 2°55.733 14.8 4 8.8 13.8
2001-08-14 07:04:33 51°13.719 2°55.731 5.7 4.5 358.3 13.5
2001-08-14 07:04:37 51°13.725 2°55.729 356 5 351.3 12.6
2001-08-14 07:04:43 51°13.734 2°55.724 346.2 5.3 344.7 12.1
2001-08-14 07:04:47 51°13.739 2°55.719 339.3 5.6 337 12.3
2001-08-14 07:04:53 51°13.747 2°55.712 336.5 5.6 334.4 11.7
2001-08-14 07:04:57 51°13.753 2°55.707 334.3 5.6 331.6 12
2001-08-14 07:05:03 51°13.761 2°55.7 332.3 5.6 330 12.1
2001-08-14 07:05:07 51°13.766 2°55.694 331 5.6 328.3 12
2001-08-14 07:05:13 51°13.773 2°55.686 330.2 5.5 327.1 12
2001-08-14 07:05:17 51°13.778 2°55.681 329.7 5.5 326.6 12.2
2001-08-14 07:05:23 51°13.786 2°55.673 329.5 5.5 325.9 12.3
2001-08-14 07:05:27 51°13.791 2°55.667 329.3 5.5 325.8 12.3
2001-08-14 07:05:33 51°13.798 2°55.659 329.2 5.5 325.6 12.5
2001-08-14 07:05:37 51°13.803 2°55.654 329.5 5.5 325.9 12.4
2001-08-14 07:05:43 51°13.811 2°55.646 329.7 5.4 326 12.5
2001-08-14 07:05:47 51°13.816 2°55.641 329.8 5.4 326.2 12.4
2001-08-14 07:05:53 51°13.824 2°55.632 330 5.4 326.2 12.5
2001-08-14 07:05:57 51°13.828 2°55.627 330.2 5.4 326.5 12.4
2001-08-14 07:06:03 51°13.836 2°55.619 330.3 5.4 326.3 12.7
2001-08-14 07:06:07 51°13.841 2°55.614 331 5.4 326.8 12.8
2001-08-14 07:06:13 51°13.849 2°55.607 332.2 5.4 328.1 12.7
2001-08-14 07:06:17 51°13.854 2°55.602 333.8 5.4 329.3 12
2001-08-14 07:06:23 51°13.862 2°55.595 335.3 5.4 330.4 12.2
2001-08-14 07:06:27 51°13.867 2°55.591 336.3 5.4 331.4 11.8
2001-08-14 07:06:32 51°13.874 2°55.585 336.8 5.4 331.9 11.9
2001-08-14 07:06:37 51°13.881 2°55.58 337.7 5.4 332.6 12.2
2001-08-14 07:06:43 51°13.889 2°55.574 338.3 5.5 333.6 12.2
2001-08-14 07:06:47 51°13.894 2°55.569 339.3 5.5 334.3 11.8
2001-08-14 07:06:53 51°13.903 2°55.563 340.2 5.6 335.2 11.8
2001-08-14 07:06:57 51°13.908 2°55.559 341.3 5.6 336.3 11.6
2001-08-14 07:07:01 51°13.914 2°55.556 342.5 5.7 337.1 12.3
2001-08-14 07:07:07 51°13.923 2°55.55 343.3 5.7 338.6 12.4
2001-08-14 07:07:13 51°13.932 2°55.545 344 5.8 339.4 12.4
2001-08-14 07:07:17 51°13.938 2°55.542 344.8 5.8 341 12.5
2001-08-14 07:07:23 51°13.948 2°55.537 345.7 5.8 341.7 12.4
2001-08-14 07:07:27 51°13.954 2°55.534 346 5.8 342.3 12.4
2001-08-14 07:07:33 51°13.963 2°55.529 345.8 5.9 342.4 12.4
2001-08-14 07:07:37 51°13.969 2°55.526 345.8 5.9 342.5 12.4
2001-08-14 07:07:43 51°13.979 2°55.521 346 5.9 342.5 12.4
2001-08-14 07:07:47 51°13.985 2°55.518 345.8 5.9 342.2 12.3
2001-08-14 07:07:53 51°13.994 2°55.513 345.7 5.9 341.9 12.3
2001-08-14 07:07:57 51°14 2°55.51 345.5 5.9 341.6 12.3
2001-08-14 07:08:03 51°14.01 2°55.505 345.5 5.9 341.3 12.3
2001-08-14 07:08:07 51°14.016 2°55.502 345.5 5.9 341.2 12.3
2001-08-14 07:08:13 51°14.025 2°55.497 345.3 5.8 341.1 12.3
2001-08-14 07:08:17 51°14.031 2°55.493 345.2 5.7 340.9 12.3
2001-08-14 07:08:23 51°14.039 2°55.488 344.8 5.5 340.9 12.3
2001-08-14 07:08:27 51°14.045 2°55.485 344.5 5.4 340.3 12.3
2001-08-14 07:08:33 51°14.053 2°55.48 344.2 5.3 339.8 12.3
2001-08-14 07:08:37 51°14.058 2°55.477 343.8 5.2 339.2 12.3
2001-08-14 07:08:41 51°14.063 2°55.474 343.5 5.1 339 12.2
2001-08-14 07:08:47 51°14.071 2°55.469 343.3 5 339 12.2
2001-08-14 07:08:53 51°14.079 2°55.464 343.2 5 338.7 12.2
2001-08-14 07:08:57 51°14.084 2°55.461 343 5 338.7 12.2
2001-08-14 07:09:03 51°14.092 2°55.456 342.8 5 338.2 12.1
2001-08-14 07:09:07 51°14.097 2°55.453 342.5 5.1 337.8 12.2
2001-08-14 07:09:13 51°14.105 2°55.448 341.8 5.2 337.2 12.2
2001-08-14 07:09:17 51°14.11 2°55.444 341.2 5.2 336.9 12.1
2001-08-14 07:09:23 51°14.118 2°55.438 340.7 5.3 336.6 12.1
2001-08-14 07:09:27 51°14.124 2°55.434 340.3 5.3 336.1 12.1
2001-08-14 07:09:32 51°14.131 2°55.429 339.8 5.4 335.8 12.1
2001-08-14 07:09:37 51°14.138 2°55.424 339.2 5.7 335.1 12.1
2001-08-14 07:09:43 51°14.147 2°55.416 338.2 5.8 334.3 12.1
2001-08-14 07:09:47 51°14.153 2°55.411 337 6 332.9 12.1
2001-08-14 07:09:53 51°14.162 2°55.403 335.5 6.1 331.4 12.1
2001-08-14 07:09:57 51°14.168 2°55.398 334.2 6.2 330.4 12.1
2001-08-14 07:10:01 51°14.174 2°55.392 333.3 6.3 329.5 12.2
2001-08-14 07:10:07 51°14.183 2°55.383 332.5 6.4 328.6 12.2
2001-08-14 07:10:13 51°14.192 2°55.374 331.3 6.5 327.6 12.1
2001-08-14 07:10:17 51°14.198 2°55.367 330.2 6.6 326.5 12.3
2001-08-14 07:10:23 51°14.208 2°55.357 329 6.6 325.8 12.3
2001-08-14 07:10:27 51°14.213 2°55.35 327.5 6.7 323.9 12.3
2001-08-14 07:10:32 51°14.221 2°55.341 326 6.7 322.7 12.3
2001-08-14 07:10:37 51°14.228 2°55.331 324.5 6.8 321.2 12.3
2001-08-14 07:10:43 51°14.236 2°55.319 323 6.8 319.9 12.3
2001-08-14 07:10:47 51°14.242 2°55.311 321.3 6.8 318.2 12.3
2001-08-14 07:10:53 51°14.25 2°55.298 319.5 6.9 316.7 12.3
2001-08-14 07:10:57 51°14.256 2°55.289 317.5 6.9 314.7 12.3
2001-08-14 07:11:03 51°14.263 2°55.276 315.8 6.9 312.7 12.3
2001-08-14 07:11:07 51°14.268 2°55.267 314.8 6.9 312 12.2
2001-08-14 07:11:13 51°14.276 2°55.253 314.2 6.9 311.2 12.3
2001-08-14 07:11:17 51°14.281 2°55.243 313.7 6.9 310.5 12.3
2001-08-14 07:11:23 51°14.288 2°55.229 313.3 7 310.3 12.3
2001-08-14 07:11:27 51°14.293 2°55.219 313 7 310.1 12.3
2001-08-14 07:11:33 51°14.301 2°55.205 313.2 7 309.8 12.2
2001-08-14 07:11:37 51°14.306 2°55.196 312.8 7 309.8 12.2
2001-08-14 07:11:41 51°14.311 2°55.186 312.7 7 309.6 12.2
2001-08-14 07:11:47 51°14.318 2°55.172 312.5 7.1 309.5 12.2
2001-08-14 07:11:52 51°14.324 2°55.159 312.2 7.1 309 12.2
2001-08-14 07:11:57 51°14.331 2°55.146 311.7 7.2 308.1 12.3
2001-08-14 07:12:03 51°14.338 2°55.131 311 7.3 307.5 12.2
2001-08-14 07:12:07 51°14.343 2°55.12 311 7.4 307.2 12.2
2001-08-14 07:12:12 51°14.349 2°55.107 312 7.5 307.6 12.3
2001-08-14 07:12:17 51°14.356 2°55.094 313.7 7.7 309.5 12.3
2001-08-14 07:12:23 51°14.366 2°55.079 316.3 7.8 313 12.4
2001-08-14 07:12:27 51°14.373 2°55.07 320 7.9 316.7 12.6
2001-08-14 07:12:33 51°14.384 2°55.058 324.5 8.1 323.4 12.6
2001-08-14 07:12:37 51°14.392 2°55.051 329.3 8.2 328 12.4
2001-08-14 07:12:43 51°14.405 2°55.041 333 8.4 332 12.5
2001-08-14 07:12:47 51°14.414 2°55.034 335.2 8.9 335.4 12.5
2001-08-14 07:12:53 51°14.429 2°55.024 336 9.2 336.5 12
2001-08-14 07:12:57 51°14.439 2°55.017 336.2 9.7 336.4 11.9
2001-08-14 07:13:03 51°14.454 2°55.006 335.7 10 335.8 12
2001-08-14 07:13:07 51°14.465 2°54.998 335.3 10.3 335.3 11.9
2001-08-14 07:13:13 51°14.481 2°54.986 335.2 10.6 335 11.8
2001-08-14 07:13:17 51°14.492 2°54.978 335.3 10.7 335.3 11.6
2001-08-14 07:13:23 51°14.509 2°54.966 335.7 11 335.7 11.6
2001-08-14 07:13:27 51°14.52 2°54.958 335.8 11.2 335.8 11.6
2001-08-14 07:13:32 51°14.535 2°54.947 335.8 11.4 335.8 11.5
2001-08-14 07:13:37 51°14.55 2°54.936 335.8 11.9 335.9 11.5
2001-08-14 07:13:42 51°14.566 2°54.925 335.7 12.2 335.7 11.5
2001-08-14 07:13:47 51°14.582 2°54.913 334.8 12.5 335 11.4
2001-08-14 07:13:53 51°14.601 2°54.899 334.8 12.7 334.6 11.4
2001-08-14 07:13:57 51°14.615 2°54.889 334.5 12.9 334.4 11.4
2001-08-14 07:14:02 51°14.631 2°54.876 334.5 13 334.2 11.3
2001-08-14 07:14:07 51°14.647 2°54.863 334.7 13.1 333.9 11.3
2001-08-14 07:14:13 51°14.667 2°54.848 334.5 13.2 333.8 11.3
2001-08-14 07:14:17 51°14.68 2°54.837 334.3 13.3 333.6 11.3
2001-08-14 07:14:23 51°14.7 2°54.822 334.3 13.3 333.6 11.2
2001-08-14 07:14:27 51°14.714 2°54.811 334.8 13.4 333.8 11.2
2001-08-14 07:14:32 51°14.73 2°54.798 334.7 13.4 333.9 11.2
2001-08-14 07:14:37 51°14.747 2°54.785 335 13.5 334.4 11.3
2001-08-14 07:14:43 51°14.768 2°54.77 335.2 13.5 334.6 11.2
2001-08-14 07:14:47 51°14.781 2°54.759 335 13.5 334.5 11.2
2001-08-14 07:14:53 51°14.801 2°54.743 333.3 13.6 333.9 11.3
2001-08-14 07:14:57 51°14.814 2°54.731 330.5 13.5 331.3 11.3
2001-08-14 07:15:03 51°14.833 2°54.712 328.3 13.4 329 11.3
2001-08-14 07:15:07 51°14.845 2°54.699 327 13.4 327.3 11.3
2001-08-14 07:15:13 51°14.863 2°54.679 325 13.4 325.9 11.3
2001-08-14 07:15:17 51°14.875 2°54.664 323 13.3 323.6 11.5
2001-08-14 07:15:23 51°14.892 2°54.642 321.5 13.3 322.3 11.3
2001-08-14 07:15:27 51°14.904 2°54.627 320.7 13.3 321.3 11.2
2001-08-14 07:15:33 51°14.921 2°54.605 320.5 13.3 321 11.1
2001-08-14 07:15:37 51°14.932 2°54.591 321.3 13.3 321.3 11.1
2001-08-14 07:15:41 51°14.944 2°54.576 322 13.3 322.3 11
2001-08-14 07:15:47 51°14.962 2°54.555 323.2 13.3 323 11
2001-08-14 07:15:52 51°14.977 2°54.538 324.3 13.3 324.1 10.7
2001-08-14 07:15:57 51°14.992 2°54.522 325.3 13.3 325 10.5
2001-08-14 07:16:03 51°15.011 2°54.501 326 13.4 325.6 10.5
2001-08-14 07:16:07 51°15.023 2°54.488 326.3 13.4 325.7 10.4
2001-08-14 07:16:13 51°15.041 2°54.468 326 13.4 325.8 10.5
2001-08-14 07:16:17 51°15.054 2°54.455 326 13.4 325.6 10.4
2001-08-14 07:16:22 51°15.069 2°54.438 326 13.4 325.6 10.5
2001-08-14 07:16:27 51°15.084 2°54.421 325.7 13.4 325.2 10.5
2001-08-14 07:16:33 51°15.102 2°54.401 325.7 13.4 325.1 10.6
2001-08-14 07:16:37 51°15.115 2°54.387 325.5 13.4 325 10.7
2001-08-14 07:16:43 51°15.133 2°54.366 325.8 13.5 325.2 10.8
2001-08-14 07:16:47 51°15.145 2°54.352 326.2 13.5 325.3 10.8
2001-08-14 07:16:53 51°15.164 2°54.332 326 13.5 325.4 10.8
2001-08-14 07:16:57 51°15.176 2°54.318 326.2 13.5 325.4 10.9
2001-08-14 07:17:03 51°15.195 2°54.298 325.7 13.6 325.2 10.9
2001-08-14 07:17:07 51°15.207 2°54.284 325.3 13.5 324.7 11.1
2001-08-14 07:17:13 51°15.225 2°54.263 324.8 13.5 324.4 11
2001-08-14 07:17:17 51°15.237 2°54.249 324.8 13.5 324.1 11.1
2001-08-14 07:17:23 51°15.255 2°54.228 324.3 13.5 324 11.1
2001-08-14 07:17:27 51°15.267 2°54.213 324.2 13.5 323.9 11.2
2001-08-14 07:17:32 51°15.283 2°54.196 324.5 13.5 324.1 11.2
2001-08-14 07:17:37 51°15.298 2°54.179 325 13.5 324.6 11.3
2001-08-14 07:17:43 51°15.317 2°54.158 325.5 13.5 325.1 11.3
2001-08-14 07:17:47 51°15.329 2°54.145 326 13.5 325.5 11.4
2001-08-14 07:17:52 51°15.345 2°54.128 326.3 13.6 325.8 11.5
2001-08-14 07:17:57 51°15.36 2°54.111 326.2 13.6 325.8 11.6
2001-08-14 07:18:01 51°15.373 2°54.097 325.8 13.6 325.6 11.6
2001-08-14 07:18:07 51°15.391 2°54.077 325.3 13.6 325 11.6
2001-08-14 07:18:11 51°15.403 2°54.063 325.3 13.6 324.6 11.8
2001-08-14 07:18:17 51°15.422 2°54.042 324.7 13.6 324.2 11.8
2001-08-14 07:18:21 51°15.434 2°54.028 325 13.6 324 11.9
2001-08-14 07:18:27 51°15.452 2°54.007 325 13.6 324.2 12
2001-08-14 07:18:31 51°15.464 2°53.993 325.2 13.6 324.3 12
2001-08-14 07:18:37 51°15.483 2°53.972 325.7 13.6 324.6 12.1
2001-08-14 07:18:41 51°15.495 2°53.958 326.2 13.6 325.3 12.2
2001-08-14 07:18:47 51°15.514 2°53.938 326.7 13.6 325.7 12.2
2001-08-14 07:18:51 51°15.526 2°53.924 326.8 13.6 326 12.3
2001-08-14 07:18:57 51°15.545 2°53.904 326.7 13.6 326 12.4
2001-08-14 07:19:01 51°15.557 2°53.891 326.5 13.6 325.7 12.5
2001-08-14 07:19:07 51°15.576 2°53.87 325.8 13.6 325.3 12.6
2001-08-14 07:19:11 51°15.588 2°53.856 325.3 13.6 324.8 12.6
2001-08-14 07:19:17 51°15.606 2°53.835 324.8 13.5 324.4 12.7
2001-08-14 07:19:21 51°15.619 2°53.821 325 13.5 324.2 12.8
2001-08-14 07:19:27 51°15.637 2°53.8 324.8 13.5 324 12.9
2001-08-14 07:19:31 51°15.649 2°53.786 324.2 13.5 323.8 12.9
2001-08-14 07:19:37 51°15.667 2°53.764 324 13.5 323.5 13
2001-08-14 07:19:41 51°15.679 2°53.75 323.8 13.5 323.6 13
2001-08-14 07:19:47 51°15.697 2°53.729 324.2 13.5 323.6 13.1
2001-08-14 07:19:51 51°15.709 2°53.715 324.5 13.5 324 13.2
2001-08-14 07:19:57 51°15.728 2°53.694 325.2 13.5 324.7 13.3
2001-08-14 07:20:02 51°15.743 2°53.678 325.7 13.5 325.3 13.3
2001-08-14 07:20:07 51°15.759 2°53.661 326 13.5 325.8 13.3
2001-08-14 07:20:11 51°15.771 2°53.648 326.2 13.5 325.9 13.4
2001-08-14 07:20:17 51°15.789 2°53.627 325.8 13.5 325.8 13.5
2001-08-14 07:20:21 51°15.802 2°53.614 325.5 13.5 325.5 13.5
2001-08-14 07:20:27 51°15.82 2°53.594 325.3 13.5 325.3 13.6
2001-08-14 07:20:32 51°15.835 2°53.576 325.3 13.5 325.1 13.6
2001-08-14 07:20:37 51°15.851 2°53.559 325.3 13.5 325.2 13.7
2001-08-14 07:20:42 51°15.866 2°53.542 325.3 13.5 325.1 13.7
2001-08-14 07:20:47 51°15.881 2°53.526 325.2 13.5 325.1 13.8
2001-08-14 07:20:51 51°15.894 2°53.512 325.3 13.5 324.9 13.8
2001-08-14 07:20:57 51°15.912 2°53.491 325 13.5 324.7 13.9
2001-08-14 07:21:01 51°15.924 2°53.477 325.3 13.5 324.8 13.9
2001-08-14 07:21:07 51°15.942 2°53.457 325.5 13.5 324.9 13.9
2001-08-14 07:21:11 51°15.955 2°53.443 325.8 13.5 325.1 13.9
2001-08-14 07:21:17 51°15.973 2°53.423 325.8 13.5 325.5 14
2001-08-14 07:21:21 51°15.986 2°53.41 326.7 13.5 325.7 14.1
2001-08-14 07:21:27 51°16.005 2°53.39 327.2 13.5 326.5 14.1
2001-08-14 07:21:32 51°16.02 2°53.374 327.8 13.5 326.7 14.1
2001-08-14 07:21:37 51°16.036 2°53.358 328.2 13.5 327.5 14.2
2001-08-14 07:21:41 51°16.049 2°53.345 328.5 13.5 327.7 14.2
2001-08-14 07:21:47 51°16.068 2°53.327 328.7 13.5 328.1 14.2
2001-08-14 07:21:51 51°16.081 2°53.314 328.8 13.5 328.2 14.2
2001-08-14 07:21:57 51°16.1 2°53.296 329.2 13.5 328.6 14.2
2001-08-14 07:22:03 51°16.119 2°53.277 329.5 13.5 328.9 14.3
2001-08-14 07:22:07 51°16.132 2°53.265 329.5 13.5 329.2 14.3
2001-08-14 07:22:11 51°16.145 2°53.253 329.8 13.5 329.5 14.3
2001-08-14 07:22:17 51°16.165 2°53.235 330 13.5 329.6 14.4
2001-08-14 07:22:21 51°16.178 2°53.223 330.3 13.5 330 14.4
2001-08-14 07:22:27 51°16.197 2°53.205 330.7 13.5 330.3 14.4
2001-08-14 07:22:31 51°16.21 2°53.193 330.8 13.6 330.7 14.4
2001-08-14 07:22:37 51°16.23 2°53.176 331.2 13.6 330.9 14.5
2001-08-14 07:22:41 51°16.243 2°53.164 331.3 13.6 331 14.5
2001-08-14 07:22:47 51°16.263 2°53.148 331.7 13.6 331.4 14.6
2001-08-14 07:22:51 51°16.277 2°53.136 332.2 13.6 331.8 14.5
2001-08-14 07:22:57 51°16.297 2°53.12 332.3 13.6 332.2 14.5
2001-08-14 07:23:03 51°16.317 2°53.103 333.2 13.6 332.7 14.5
2001-08-14 07:23:07 51°16.33 2°53.093 334 13.6 333.5 14.4
2001-08-14 07:23:11 51°16.344 2°53.082 334.7 13.6 334.3 14.4
2001-08-14 07:23:17 51°16.365 2°53.067 335.5 13.6 334.8 14.4
2001-08-14 07:23:21 51°16.379 2°53.057 336 13.6 335.5 14.3
2001-08-14 07:23:27 51°16.399 2°53.042 336.5 13.7 336 14.4
2001-08-14 07:23:31 51°16.413 2°53.033 336.5 13.7 336.3 14.3
2001-08-14 07:23:37 51°16.434 2°53.018 336.5 13.7 336.2 14.3
2001-08-14 07:23:43 51°16.455 2°53.004 336.5 13.7 336.3 14.3
2001-08-14 07:23:47 51°16.469 2°52.994 336.3 13.7 335.9 14.2
2001-08-14 07:23:51 51°16.483 2°52.984 335.8 13.7 335.6 14.2
2001-08-14 07:23:57 51°16.503 2°52.969 335.3 13.7 335.4 14.1
2001-08-14 07:24:01 51°16.517 2°52.958 335 13.6 334.7 14
2001-08-14 07:24:07 51°16.537 2°52.943 334.5 13.6 334.5 13.9
2001-08-14 07:24:11 51°16.551 2°52.932 334.8 13.6 334.2 13.9
2001-08-14 07:24:17 51°16.572 2°52.916 334.5 13.6 334.3 13.8
2001-08-14 07:24:21 51°16.585 2°52.905 334.8 13.6 334 13.8
2001-08-14 07:24:27 51°16.605 2°52.89 334.5 13.6 334 13.7
2001-08-14 07:24:31 51°16.619 2°52.879 334.5 13.6 334.1 13.5
2001-08-14 07:24:37 51°16.639 2°52.863 334.3 13.6 333.8 13.5
2001-08-14 07:24:43 51°16.66 2°52.847 333.7 13.6 333.4 13.4
2001-08-14 07:24:47 51°16.673 2°52.836 333.2 13.6 332.6 13.2
2001-08-14 07:24:51 51°16.686 2°52.824 332.5 13.6 332 13.2
2001-08-14 07:24:57 51°16.707 2°52.808 332.3 13.6 332 12.9
2001-08-14 07:25:01 51°16.72 2°52.797 333 13.6 332.2 12.7
2001-08-14 07:25:07 51°16.74 2°52.78 333 13.6 332.5 12.6
2001-08-14 07:25:11 51°16.753 2°52.769 333.5 13.6 332.7 12.2
2001-08-14 07:25:17 51°16.773 2°52.752 333.3 13.6 332.8 11.7
2001-08-14 07:25:23 51°16.794 2°52.736 333.5 13.5 332.7 11.8
2001-08-14 07:25:27 51°16.807 2°52.725 333.8 13.5 333.2 12
2001-08-14 07:25:31 51°16.821 2°52.714 334.5 13.6 333.4 11.9
2001-08-14 07:25:37 51°16.841 2°52.698 334.5 13.6 333.6 11.6
2001-08-14 07:25:41 51°16.854 2°52.688 334.7 13.6 333.7 11.6
2001-08-14 07:25:47 51°16.875 2°52.672 335.3 13.7 334.3 11.5
2001-08-14 07:25:53 51°16.896 2°52.657 336.2 13.7 334.7 11.7
2001-08-14 07:25:57 51°16.909 2°52.647 336.5 13.7 335.4 11.8
2001-08-14 07:26:03 51°16.93 2°52.631 336.5 13.7 335.2 11.9
2001-08-14 07:26:07 51°16.944 2°52.621 336.3 13.7 335.4 12.1
2001-08-14 07:26:11 51°16.958 2°52.611 336.8 13.8 335.6 12.3
2001-08-14 07:26:17 51°16.979 2°52.596 336.5 13.8 335.6 12.4
2001-08-14 07:26:21 51°16.992 2°52.585 336.5 13.8 335.6 12.1
2001-08-14 07:26:27 51°17.013 2°52.57 336.5 13.8 335.3 11.7
2001-08-14 07:26:31 51°17.027 2°52.56 335.8 13.8 334.9 11.7
2001-08-14 07:26:37 51°17.048 2°52.544 335.7 13.7 334.5 11.7
2001-08-14 07:26:43 51°17.068 2°52.528 335.2 13.7 334.5 11.7
2001-08-14 07:26:47 51°17.082 2°52.518 335.2 13.7 334.2 11.8
2001-08-14 07:26:51 51°17.096 2°52.507 335.3 13.7 334.2 11.8
2001-08-14 07:26:57 51°17.116 2°52.491 335.2 13.7 334 11.9
2001-08-14 07:27:03 51°17.137 2°52.475 335 13.7 334.3 11.9
2001-08-14 07:27:07 51°17.15 2°52.464 335.3 13.7 334.2 11.9
2001-08-14 07:27:11 51°17.164 2°52.454 334.5 13.7 333.9 12
2001-08-14 07:27:17 51°17.185 2°52.439 333.8 13.7 333.5 12.1
2001-08-14 07:27:21 51°17.198 2°52.428 333.8 13.7 332.9 12.1
2001-08-14 07:27:27 51°17.219 2°52.411 332.8 13.7 332.3 12.2
2001-08-14 07:27:31 51°17.232 2°52.399 332.2 13.7 331.7 12.3
2001-08-14 07:27:37 51°17.252 2°52.381 332.2 13.7 331.2 12.4
2001-08-14 07:27:43 51°17.272 2°52.363 331.7 13.8 331.3 12.4
2001-08-14 07:27:47 51°17.285 2°52.351 332 13.8 331 12.5
2001-08-14 07:27:51 51°17.299 2°52.34 331.5 13.8 331.1 12.5
2001-08-14 07:27:57 51°17.319 2°52.322 331.2 13.7 330.6 12.5
2001-08-14 07:28:01 51°17.332 2°52.31 330.5 13.7 330.4 12.5
2001-08-14 07:28:07 51°17.352 2°52.291 330.5 13.7 329.9 12.5
2001-08-14 07:28:11 51°17.365 2°52.279 330 13.7 329.4 12.5
2001-08-14 07:28:17 51°17.384 2°52.26 329.5 13.7 328.9 12.5
2001-08-14 07:28:23 51°17.404 2°52.241 329.3 13.7 328.5 12.5
2001-08-14 07:28:27 51°17.416 2°52.227 328.2 13.7 327.5 12.5
2001-08-14 07:28:31 51°17.429 2°52.214 326.7 13.7 326.7 12.6
2001-08-14 07:28:37 51°17.448 2°52.193 326.3 13.7 325.8 12.6
2001-08-14 07:28:41 51°17.46 2°52.179 325.5 13.7 325.5 12.6
2001-08-14 07:28:47 51°17.478 2°52.157 324.8 13.7 324.4 12.6
2001-08-14 07:28:51 51°17.49 2°52.142 323.2 13.6 323.1 12.6
2001-08-14 07:28:57 51°17.508 2°52.119 320.8 13.6 321.2 12.6
2001-08-14 07:29:01 51°17.519 2°52.103 319.5 13.6 319.6 12.6
2001-08-14 07:29:07 51°17.535 2°52.079 318.3 13.5 317.8 12.5
2001-08-14 07:29:11 51°17.546 2°52.062 315.3 13.4 315.7 12.5
2001-08-14 07:29:17 51°17.561 2°52.035 312.5 13.4 312.9 12.6
2001-08-14 07:29:23 51°17.575 2°52.007 309.5 13.3 310.4 12.5
2001-08-14 07:29:27 51°17.583 2°51.989 307 13.2 307.5 12.6
2001-08-14 07:29:31 51°17.592 2°51.969 305 13.2 306 12.6
2001-08-14 07:29:37 51°17.604 2°51.94 304 13.2 303.9 12.6
2001-08-14 07:29:41 51°17.612 2°51.92 302.3 13.2 302.8 12.5
2001-08-14 07:29:47 51°17.623 2°51.89 300.5 13.2 301 12.5
2001-08-14 07:29:51 51°17.63 2°51.87 299.8 13.2 300.3 12.4
2001-08-14 07:29:57 51°17.641 2°51.84 298.8 13.2 299.3 12.4
2001-08-14 07:30:01 51°17.647 2°51.819 298 13.1 298.1 12.4
2001-08-14 07:30:07 51°17.657 2°51.788 297.2 13.1 297.4 12.4
2001-08-14 07:30:13 51°17.667 2°51.756 296.3 13.1 296.4 12.2
2001-08-14 07:30:17 51°17.673 2°51.735 295.2 13.1 295.4 12.2
2001-08-14 07:30:23 51°17.682 2°51.704 294.5 13.1 294.7 12.3
2001-08-14 07:30:27 51°17.688 2°51.683 294.2 13.1 294.3 12.2
2001-08-14 07:30:31 51°17.693 2°51.662 294 13.1 294.1 12.2
2001-08-14 07:30:37 51°17.702 2°51.63 293 13.1 293.2 12.1
2001-08-14 07:30:41 51°17.707 2°51.609 291.8 13.1 292.3 12.1
2001-08-14 07:30:47 51°17.715 2°51.577 291.7 13 291.7 12
2001-08-14 07:30:51 51°17.72 2°51.555 291.5 13 291.2 12.1
2001-08-14 07:30:57 51°17.727 2°51.523 290.7 13.1 290.6 12.1
2001-08-14 07:31:01 51°17.732 2°51.501 290.2 13.1 290.1 12.1
2001-08-14 07:31:07 51°17.74 2°51.468 290.2 13 290 12.2
2001-08-14 07:31:13 51°17.747 2°51.436 290.7 13.1 290.2 12.2
2001-08-14 07:31:17 51°17.752 2°51.414 290.7 13.1 290.2 12.2
2001-08-14 07:31:23 51°17.76 2°51.382 291 13.1 290.7 12.2
2001-08-14 07:31:27 51°17.765 2°51.36 291.8 13.1 291.1 12.2
2001-08-14 07:31:31 51°17.771 2°51.339 292 13.1 291.5 12.3
2001-08-14 07:31:37 51°17.779 2°51.306 292.3 13.2 291.9 12.3
2001-08-14 07:31:41 51°17.784 2°51.285 292 13.2 291.8 12.4
2001-08-14 07:31:47 51°17.793 2°51.252 292.5 13.2 292 12.5
2001-08-14 07:31:53 51°17.801 2°51.22 292.5 13.2 292.1 12.6
2001-08-14 07:31:57 51°17.806 2°51.198 292.8 13.2 292.3 12.6
2001-08-14 07:32:01 51°17.812 2°51.177 292.7 13.2 292.4 12.6
2001-08-14 07:32:07 51°17.82 2°51.145 292.3 13.1 292.4 12.7
2001-08-14 07:32:13 51°17.829 2°51.113 292.8 13.1 292.5 12.9
2001-08-14 07:32:17 51°17.834 2°51.091 293 13.1 292.7 13
2001-08-14 07:32:23 51°17.843 2°51.059 293.7 13.1 293 13.3
2001-08-14 07:32:27 51°17.849 2°51.038 293.3 13.2 293.2 13.3
2001-08-14 07:32:31 51°17.854 2°51.016 293.2 13.2 293 13.4
2001-08-14 07:32:37 51°17.863 2°50.984 292.5 13.2 292.4 13.6
2001-08-14 07:32:41 51°17.868 2°50.962 292 13.1 292.1 13.7
2001-08-14 07:32:47 51°17.876 2°50.93 291.7 13.2 291.8 13.8
2001-08-14 07:32:53 51°17.884 2°50.898 291.5 13.2 291.4 13.9
2001-08-14 07:32:57 51°17.889 2°50.876 291.7 13.1 291.5 13.9
2001-08-14 07:33:03 51°17.897 2°50.844 291.5 13.1 291.6 14.1
2001-08-14 07:33:07 51°17.903 2°50.822 292.2 13.2 291.9 14.1
2001-08-14 07:33:13 51°17.911 2°50.79 292.2 13.2 292 14.2
2001-08-14 07:33:17 51°17.917 2°50.768 292.7 13.1 292.3 14.3
2001-08-14 07:33:23 51°17.926 2°50.736 293.2 13.1 292.9 14.4
2001-08-14 07:33:27 51°17.931 2°50.715 293.8 13.1 293.5 14.5
2001-08-14 07:33:32 51°17.939 2°50.689 294.2 13.1 293.9 14.5
2001-08-14 07:33:37 51°17.946 2°50.662 294.2 13.1 294.1 14.6
2001-08-14 07:33:41 51°17.952 2°50.641 294.5 13.1 294.4 14.6
2001-08-14 07:33:47 51°17.961 2°50.609 294.5 13.1 294.4 14.8
2001-08-14 07:33:51 51°17.967 2°50.588 293.8 13.1 294.1 14.8
2001-08-14 07:33:57 51°17.976 2°50.556 293.8 13.1 293.7 14.8
2001-08-14 07:34:03 51°17.985 2°50.524 293.7 13.1 293.4 14.8
2001-08-14 07:34:07 51°17.991 2°50.503 294 13.1 293.7 15.1
2001-08-14 07:34:13 51°17.999 2°50.471 294.2 13.1 293.8 15.1
2001-08-14 07:34:17 51°18.005 2°50.45 293.2 13.2 293.2 15.2
2001-08-14 07:34:21 51°18.01 2°50.428 292.7 13.1 292.8 15.2
2001-08-14 07:34:27 51°18.018 2°50.396 292.7 13.1 292.3 15.2
2001-08-14 07:34:33 51°18.027 2°50.364 292.2 13.1 292.1 15.3
2001-08-14 07:34:37 51°18.032 2°50.342 291.7 13.1 291.6 15.5
2001-08-14 07:34:43 51°18.04 2°50.31 291.3 13.1 291.2 15.6
2001-08-14 07:34:47 51°18.045 2°50.288 291.5 13.1 290.9 15.5
2001-08-14 07:34:51 51°18.05 2°50.267 291.5 13.1 290.8 15.7
2001-08-14 07:34:57 51°18.058 2°50.234 291 13.1 290.7 15.8
2001-08-14 07:35:01 51°18.063 2°50.213 291.3 13.1 290.8 15.8
2001-08-14 07:35:07 51°18.071 2°50.18 290.8 13.1 290.5 15.9
2001-08-14 07:35:11 51°18.076 2°50.158 291.2 13 290.6 15.7
2001-08-14 07:35:17 51°18.084 2°50.126 291.5 13.1 290.9 15.9
2001-08-14 07:35:23 51°18.092 2°50.093 291.7 13.1 291 16
2001-08-14 07:35:27 51°18.097 2°50.072 292.2 13.1 291.6 15.8
2001-08-14 07:35:31 51°18.102 2°50.051 292.8 13.1 291.9 15.8
2001-08-14 07:35:37 51°18.111 2°50.018 292.7 13.1 292.2 16
2001-08-14 07:35:43 51°18.119 2°49.986 292.8 13.1 292.1 15.9
2001-08-14 07:35:47 51°18.124 2°49.964 292.3 13.1 292 15.9
2001-08-14 07:35:51 51°18.13 2°49.943 292.3 13.1 291.6 16.1
2001-08-14 07:35:57 51°18.138 2°49.911 292.5 13.1 291.9 15.9
2001-08-14 07:36:01 51°18.143 2°49.889 292.5 13.1 291.6 15.9
2001-08-14 07:36:07 51°18.15 2°49.857 292.7 13.1 292 15.9
2001-08-14 07:36:11 51°18.156 2°49.836 292.7 13.1 291.9 16
2001-08-14 07:36:17 51°18.164 2°49.803 293 13.1 292.1 15.8
2001-08-14 07:36:23 51°18.173 2°49.771 292.8 13.1 292 15.8
2001-08-14 07:36:27 51°18.178 2°49.749 292.8 13.1 292 15.7
2001-08-14 07:36:33 51°18.186 2°49.717 292.7 13.1 292.1 15.7
2001-08-14 07:36:37 51°18.192 2°49.696 293.3 13.1 292.3 15.6
2001-08-14 07:36:41 51°18.198 2°49.674 293.3 13.1 292.4 15.5
2001-08-14 07:36:47 51°18.206 2°49.642 293 13.1 292.2 15.4
2001-08-14 07:36:51 51°18.211 2°49.62 293.2 13.1 292.3 15.4
2001-08-14 07:36:57 51°18.22 2°49.588 293.2 13.1 292.2 15.3
2001-08-14 07:37:03 51°18.228 2°49.556 293.2 13.1 292.3 15.2
2001-08-14 07:37:07 51°18.233 2°49.534 292.8 13.1 291.9 14.9
2001-08-14 07:37:11 51°18.239 2°49.513 292.8 13.1 291.9 14.6
2001-08-14 07:37:17 51°18.247 2°49.48 293 13.1 291.8 14.2
2001-08-14 07:37:21 51°18.252 2°49.459 292.8 13.1 291.8 13.9
2001-08-14 07:37:27 51°18.26 2°49.427 292.5 13.1 291.5 13.7
2001-08-14 07:37:31 51°18.265 2°49.405 292.2 13.1 291.1 13.7
2001-08-14 07:37:37 51°18.273 2°49.373 291.8 13 291 13.9
2001-08-14 07:37:43 51°18.281 2°49.34 292 13 290.7 13.9
2001-08-14 07:37:47 51°18.285 2°49.319 291.7 13 290.4 13.6
2001-08-14 07:37:51 51°18.291 2°49.297 291.3 13 290.3 13.6
2001-08-14 07:37:57 51°18.298 2°49.265 291 13 290 13.2
2001-08-14 07:38:03 51°18.306 2°49.232 291.3 13 290.1 13.2
2001-08-14 07:38:07 51°18.311 2°49.21 291.7 13 290.4 13
2001-08-14 07:38:11 51°18.316 2°49.189 292 13 290.8 12.9
2001-08-14 07:38:17 51°18.324 2°49.157 292.5 13 291.1 12.4
2001-08-14 07:38:21 51°18.329 2°49.136 292.3 13 291.2 12.2
2001-08-14 07:38:27 51°18.337 2°49.104 292.5 13 291.4 12.2
2001-08-14 07:38:31 51°18.342 2°49.082 292.3 12.9 291.4 12.4
2001-08-14 07:38:37 51°18.35 2°49.05 292.8 12.9 291.6 12.5
2001-08-14 07:38:43 51°18.358 2°49.018 292.8 12.9 291.6 12.7
2001-08-14 07:38:47 51°18.364 2°48.997 293.2 13 291.9 12.6
2001-08-14 07:38:51 51°18.369 2°48.975 293.2 13 292.1 12.4
2001-08-14 07:38:57 51°18.377 2°48.943 293 13 292.1 12.5
2001-08-14 07:39:01 51°18.383 2°48.922 293.2 13 292 12.6
2001-08-14 07:39:07 51°18.391 2°48.89 293.2 13 292.2 12.6
2001-08-14 07:39:11 51°18.396 2°48.868 293.2 13 292.2 12.5
2001-08-14 07:39:17 51°18.405 2°48.836 293.2 13 292.2 12.1
2001-08-14 07:39:23 51°18.413 2°48.804 293.2 13 292 12.1
2001-08-14 07:39:27 51°18.418 2°48.783 292.5 13 291.7 12.4
2001-08-14 07:39:31 51°18.423 2°48.762 292.7 13 291.6 12.7
2001-08-14 07:39:37 51°18.43 2°48.73 292.3 13 291.4 12.9
2001-08-14 07:39:41 51°18.436 2°48.708 292.7 13 291.4 13.1
2001-08-14 07:39:47 51°18.444 2°48.676 293 13 291.8 13.1
2001-08-14 07:39:53 51°18.452 2°48.644 293.5 13 292.3 12.9
2001-08-14 07:39:57 51°18.458 2°48.623 293.8 13 292.9 13
2001-08-14 07:40:03 51°18.466 2°48.591 293.8 13 292.8 12.5
2001-08-14 07:40:07 51°18.472 2°48.57 293.8 13 293 11.9
2001-08-14 07:40:11 51°18.478 2°48.549 294 13 293.1 12.3
2001-08-14 07:40:17 51°18.486 2°48.517 294 12.9 293.2 12.8
2001-08-14 07:40:23 51°18.495 2°48.485 294.2 12.9 293.4 13
2001-08-14 07:40:27 51°18.501 2°48.464 294.2 13 293.4 13.3
2001-08-14 07:40:31 51°18.507 2°48.443 294.3 13.1 293.6 13.6
2001-08-14 07:40:37 51°18.516 2°48.411 294.3 13.1 293.5 13.8
2001-08-14 07:40:41 51°18.521 2°48.389 293.8 13.1 293.3 13.8
2001-08-14 07:40:47 51°18.53 2°48.357 293.7 13.1 293.1 13.9
2001-08-14 07:40:51 51°18.536 2°48.336 293.7 13.1 293 14.1
2001-08-14 07:40:57 51°18.545 2°48.304 294 13.1 293.2 14.5
2001-08-14 07:41:03 51°18.554 2°48.272 294.7 13.1 293.4 14.7
2001-08-14 07:41:07 51°18.56 2°48.251 294.5 13.1 293.8 14.8
2001-08-14 07:41:11 51°18.565 2°48.229 294.3 13.1 293.7 15.2
2001-08-14 07:41:17 51°18.575 2°48.198 295.2 13.1 294.4 15.3
2001-08-14 07:41:21 51°18.581 2°48.177 295.2 13.1 294.5 15.5
2001-08-14 07:41:27 51°18.59 2°48.146 295.2 13.1 294.7 15.6
2001-08-14 07:41:31 51°18.596 2°48.125 295 13.1 294.7 15.8
2001-08-14 07:41:37 51°18.605 2°48.093 295 13.1 294.5 15.9
2001-08-14 07:41:43 51°18.614 2°48.061 295 13.1 294.6 16
2001-08-14 07:41:47 51°18.62 2°48.04 295 13.1 294.6 16.1
2001-08-14 07:41:51 51°18.626 2°48.019 295.3 13.1 294.6 16.2
2001-08-14 07:41:57 51°18.636 2°47.987 295.3 13.1 294.9 16.4
2001-08-14 07:42:01 51°18.642 2°47.966 295.5 13.1 295.2 16.5
2001-08-14 07:42:07 51°18.651 2°47.935 295.8 13.1 295.4 16.6
2001-08-14 07:42:11 51°18.657 2°47.914 296 13 295.7 16.8
2001-08-14 07:42:17 51°18.666 2°47.883 295.2 13 295.3 16.9
2001-08-14 07:42:23 51°18.675 2°47.851 295 13 294.9 17.1
2001-08-14 07:42:27 51°18.682 2°47.831 294.8 13 294.8 17.3
2001-08-14 07:42:31 51°18.688 2°47.809 295 13 294.9 17.5
2001-08-14 07:42:37 51°18.697 2°47.778 295.2 13 295.1 17.8
2001-08-14 07:42:41 51°18.703 2°47.757 295.2 13 295 18
2001-08-14 07:42:47 51°18.713 2°47.726 295.7 13.1 295.5 18.2
2001-08-14 07:42:51 51°18.719 2°47.705 295.8 13.1 295.5 18.4
2001-08-14 07:42:57 51°18.728 2°47.674 296 13.1 296 18.5
2001-08-14 07:43:01 51°18.734 2°47.653 296 13.1 296 18.6
2001-08-14 07:43:07 51°18.744 2°47.622 296.5 13.1 296.4 18.7
2001-08-14 07:43:12 51°18.752 2°47.596 296.2 13.1 296.3 18.9
2001-08-14 07:43:17 51°18.76 2°47.57 296 13.1 296.1 19.1
2001-08-14 07:43:21 51°18.766 2°47.549 295.8 13.1 295.7 19.3
2001-08-14 07:43:27 51°18.776 2°47.517 295.2 13.1 295.5 19.5
2001-08-14 07:43:31 51°18.782 2°47.496 294.7 13.1 294.8 19.6
2001-08-14 07:43:37 51°18.791 2°47.465 293.8 13.1 294.3 19.8
2001-08-14 07:43:41 51°18.796 2°47.443 293.3 13.1 293.8 19.9
2001-08-14 07:43:47 51°18.804 2°47.411 292.3 13 292.9 20.1
2001-08-14 07:43:51 51°18.81 2°47.39 291.2 13 292.1 20.3
2001-08-14 07:43:57 51°18.818 2°47.358 290.8 13 291.3 20.5
2001-08-14 07:44:03 51°18.825 2°47.325 290.5 13 291 20.7
2001-08-14 07:44:07 51°18.831 2°47.304 290.8 12.9 291 20.9
2001-08-14 07:44:11 51°18.836 2°47.283 290.7 12.9 290.7 21
2001-08-14 07:44:17 51°18.844 2°47.251 290.7 12.9 291 21.1
2001-08-14 07:44:23 51°18.851 2°47.219 290.7 12.9 290.9 21.2
2001-08-14 07:44:27 51°18.857 2°47.197 290.8 12.9 291.1 21.3
2001-08-14 07:44:31 51°18.862 2°47.176 291.2 12.9 291 21.3
2001-08-14 07:44:37 51°18.87 2°47.144 291 12.9 291.3 21.4
2001-08-14 07:44:41 51°18.875 2°47.122 291.2 12.9 291.1 21.5
2001-08-14 07:44:47 51°18.882 2°47.09 290.8 12.9 290.9 21.6
2001-08-14 07:44:51 51°18.887 2°47.069 291.2 12.9 290.8 21.8
2001-08-14 07:44:57 51°18.895 2°47.037 290.7 12.9 290.6 21.9
2001-08-14 07:45:03 51°18.903 2°47.005 290.7 12.9 290.5 22
2001-08-14 07:45:07 51°18.907 2°46.983 290.5 12.9 290.3 22.1
2001-08-14 07:45:11 51°18.913 2°46.962 290.5 12.9 290.4 22.2
2001-08-14 07:45:17 51°18.92 2°46.929 290.7 12.9 290.3 22.4
2001-08-14 07:45:23 51°18.928 2°46.897 290.8 13 290.6 22.4
2001-08-14 07:45:27 51°18.933 2°46.876 291.3 13 291 22.6
2001-08-14 07:45:32 51°18.939 2°46.849 291.2 13 291.1 22.7
2001-08-14 07:45:37 51°18.946 2°46.822 291.2 13 291.1 22.7
2001-08-14 07:45:41 51°18.951 2°46.8 291.3 12.9 290.9 22.7
2001-08-14 07:45:47 51°18.959 2°46.769 291.8 12.9 291.4 22.8
2001-08-14 07:45:52 51°18.966 2°46.742 292.2 12.9 291.5 22.9
2001-08-14 07:45:57 51°18.973 2°46.716 292.8 13 292.4 22.9
2001-08-14 07:46:02 51°18.98 2°46.689 293.2 13 292.6 22.9
2001-08-14 07:46:07 51°18.987 2°46.663 293.2 13 293 23
2001-08-14 07:46:13 51°18.995 2°46.631 292.8 13 292.6 23
2001-08-14 07:46:17 51°19 2°46.61 292.5 13 292.4 23.1
2001-08-14 07:46:21 51°19.005 2°46.588 291.7 13 291.5 23
2001-08-14 07:46:27 51°19.013 2°46.555 291 13 290.5 23.1
2001-08-14 07:46:32 51°19.019 2°46.528 290 13 289.8 23
2001-08-14 07:46:37 51°19.025 2°46.5 289.5 13 289 23
2001-08-14 07:46:41 51°19.03 2°46.479 289.5 13 288.9 23.1
2001-08-14 07:46:47 51°19.037 2°46.446 289.7 13 288.9 23.2
2001-08-14 07:46:53 51°19.044 2°46.413 289.7 13 288.9 23.2
2001-08-14 07:46:57 51°19.049 2°46.391 289.8 13 289.3 23.2
2001-08-14 07:47:03 51°19.056 2°46.359 290.7 13 289.6 22.9
2001-08-14 07:47:07 51°19.061 2°46.338 291.3 13 290.5 23
2001-08-14 07:47:11 51°19.066 2°46.316 292 13 290.9 22.9
2001-08-14 07:47:17 51°19.074 2°46.284 291.7 13 290.9 22.8
2001-08-14 07:47:21 51°19.079 2°46.262 291.5 13 290.5 22.5
2001-08-14 07:47:27 51°19.086 2°46.23 291.5 13 290.4 22.8
2001-08-14 07:47:33 51°19.094 2°46.197 291 13 290.3 22.8
2001-08-14 07:47:37 51°19.099 2°46.175 291.3 13.1 289.9 22.7
2001-08-14 07:47:41 51°19.104 2°46.153 290.2 13 289.5 22.7
2001-08-14 07:47:47 51°19.111 2°46.121 290.5 13 289.4 22.6
2001-08-14 07:47:51 51°19.116 2°46.099 290.2 13 289.1 22.2
2001-08-14 07:47:57 51°19.123 2°46.066 290.5 13 289.3 21.3
2001-08-14 07:48:03 51°19.13 2°46.033 290.7 13 289.4 22.3
2001-08-14 07:48:07 51°19.135 2°46.012 290.7 13 289.5 22
2001-08-14 07:48:13 51°19.142 2°45.979 290.8 13 289.6 21.8
2001-08-14 07:48:17 51°19.147 2°45.957 290.8 13 289.7 21.4
2001-08-14 07:48:21 51°19.153 2°45.936 291.5 13 290.1 20.9
2001-08-14 07:48:27 51°19.16 2°45.903 291.7 13 290.4 20.5
2001-08-14 07:48:32 51°19.167 2°45.876 292.2 13 290.8 20.2
2001-08-14 07:48:37 51°19.173 2°45.849 292.5 13 291.2 19.6
2001-08-14 07:48:43 51°19.182 2°45.817 293.2 13 291.7 19.9
2001-08-14 07:48:47 51°19.187 2°45.796 293 13 292 18.3
2001-08-14 07:48:53 51°19.195 2°45.764 293.7 13 292.5 18.9
2001-08-14 07:48:57 51°19.201 2°45.743 293.7 13 292.4 18.5
2001-08-14 07:49:03 51°19.209 2°45.711 293.2 13 292.2 19.1
2001-08-14 07:49:07 51°19.214 2°45.69 292 12.9 291.1 18.6
2001-08-14 07:49:11 51°19.219 2°45.668 291.7 13 290.6 17.5
2001-08-14 07:49:17 51°19.226 2°45.636 290.8 12.9 289.6 18.6
2001-08-14 07:49:21 51°19.23 2°45.614 290.3 12.9 289.3 18.2
2001-08-14 07:49:27 51°19.237 2°45.582 290.3 12.9 289 16.9
2001-08-14 07:49:31 51°19.242 2°45.56 290.5 12.9 289.3 16.8
2001-08-14 07:49:37 51°19.249 2°45.528 290.2 12.9 289.1 16.9
2001-08-14 07:49:43 51°19.256 2°45.495 290.2 12.9 289.2 16
2001-08-14 07:49:47 51°19.261 2°45.474 290.3 12.9 289.2 15
2001-08-14 07:49:51 51°19.266 2°45.453 290.8 12.9 289.6 13.6
2001-08-14 07:49:57 51°19.273 2°45.42 291.7 12.9 290.3 13.2
2001-08-14 07:50:01 51°19.278 2°45.399 291.8 12.8 290.8 15.1
2001-08-14 07:50:07 51°19.286 2°45.368 292.2 12.8 291 14.3
2001-08-14 07:50:11 51°19.291 2°45.346 291.7 12.8 290.6 14.2
2001-08-14 07:50:17 51°19.299 2°45.314 292.2 12.8 290.9 13.5
2001-08-14 07:50:23 51°19.306 2°45.283 292.2 12.8 291.2 13.8
2001-08-14 07:50:27 51°19.312 2°45.262 292.7 12.8 291.7 13
2001-08-14 07:50:31 51°19.317 2°45.241 293.7 12.7 292.4 12.9
2001-08-14 07:50:37 51°19.326 2°45.21 293.8 12.6 292.9 14.3
2001-08-14 07:50:41 51°19.331 2°45.19 293.8 12.7 293.3 14.3
2001-08-14 07:50:47 51°19.339 2°45.158 292.7 12.7 292.2 13.2
2001-08-14 07:50:51 51°19.344 2°45.138 291.3 12.7 291.3 13.1
2001-08-14 07:50:57 51°19.351 2°45.106 291 12.7 290.6 12.5
2001-08-14 07:51:03 51°19.358 2°45.075 290.8 12.6 290.6 14.2
2001-08-14 07:51:07 51°19.363 2°45.054 290.3 12.6 290.4 15.3
2001-08-14 07:51:11 51°19.368 2°45.033 290.5 12.7 290.1 16.5
2001-08-14 07:51:17 51°19.375 2°45.001 290.3 12.7 290.3 15.4
2001-08-14 07:51:21 51°19.38 2°44.98 291 12.8 290.7 16.3
2001-08-14 07:51:27 51°19.388 2°44.948 291.2 12.8 291.3 17.3
2001-08-14 07:51:31 51°19.394 2°44.927 292.5 12.8 292.4 18.5
2001-08-14 07:51:37 51°19.402 2°44.896 293.3 12.8 292.9 20
2001-08-14 07:51:41 51°19.408 2°44.875 293.5 12.9 293.5 20.3
2001-08-14 07:51:47 51°19.416 2°44.843 293 12.9 293.1 21.4
2001-08-14 07:51:52 51°19.423 2°44.817 292 12.9 292.8 22.1
2001-08-14 07:51:57 51°19.43 2°44.791 292 12.8 292.2 22.4
2001-08-14 07:52:03 51°19.438 2°44.759 291.7 12.9 292 22.7
2001-08-14 07:52:07 51°19.443 2°44.738 291.7 12.9 291.9 22.9
2001-08-14 07:52:13 51°19.451 2°44.706 291.7 12.9 291.8 23
2001-08-14 07:52:17 51°19.456 2°44.685 292 12.9 292.1 23.1
2001-08-14 07:52:21 51°19.462 2°44.664 292.2 12.9 292.4 23.3
2001-08-14 07:52:27 51°19.47 2°44.633 292.3 12.9 292.6 23.6
2001-08-14 07:52:31 51°19.475 2°44.612 291.8 12.9 292.6 23.6
2001-08-14 07:52:37 51°19.483 2°44.58 291.8 12.9 292 23.8
2001-08-14 07:52:41 51°19.488 2°44.559 291.3 12.9 292 23.8
2001-08-14 07:52:47 51°19.496 2°44.527 291.7 12.9 292 23.4
2001-08-14 07:52:51 51°19.502 2°44.506 292.2 12.9 292.3 -999
2001-08-14 07:52:57 51°19.51 2°44.474 292 12.9 292.4 -999
2001-08-14 07:53:03 51°19.518 2°44.443 292.2 12.9 292.6 -999
2001-08-14 07:53:08 51°19.525 2°44.416 291.7 12.9 292.1 -999
2001-08-14 07:53:13 51°19.532 2°44.39 291.8 13 292.2 -999
2001-08-14 07:53:17 51°19.537 2°44.368 291.8 13 291.9 -999
2001-08-14 07:53:23 51°19.545 2°44.336 291 13 292.1 -999
2001-08-14 07:53:28 51°19.551 2°44.309 290.7 12.9 291.2 -999
2001-08-14 07:53:33 51°19.558 2°44.283 290.7 12.9 291.2 -999
2001-08-14 07:53:37 51°19.563 2°44.261 290.5 12.9 290.8 -999
2001-08-14 07:53:43 51°19.571 2°44.229 290.5 12.9 290.8 -999
2001-08-14 07:53:48 51°19.577 2°44.202 289.8 12.9 290.4 17.7
2001-08-14 07:53:53 51°19.583 2°44.175 289.2 12.9 289.8 -999
2001-08-14 07:53:59 51°19.59 2°44.142 287.8 13 289 -999
2001-08-14 07:54:03 51°19.594 2°44.12 287.3 12.9 287.7 -999
2001-08-14 07:54:08 51°19.6 2°44.093 287.3 12.9 287.9 -999
2001-08-14 07:54:13 51°19.605 2°44.066 287.7 12.9 287.7 -999
2001-08-14 07:54:17 51°19.61 2°44.045 289.2 12.9 288.9 -999
2001-08-14 07:54:23 51°19.617 2°44.012 290.3 12.9 289.9 -999
2001-08-14 07:54:29 51°19.625 2°43.98 291.5 12.9 290.8 -999
2001-08-14 07:54:33 51°19.63 2°43.959 291.7 13 291.5 -999
2001-08-14 07:54:37 51°19.636 2°43.938 292.2 13 292.1 -999
2001-08-14 07:54:43 51°19.644 2°43.905 292 13 292.1 -999
2001-08-14 07:54:48 51°19.651 2°43.879 292.2 13 292.3 -999
2001-08-14 07:54:53 51°19.657 2°43.852 291.3 13 291.9 -999
2001-08-14 07:54:57 51°19.663 2°43.831 290.8 13 291.1 -999
2001-08-14 07:55:03 51°19.67 2°43.798 290.5 13 290.6 -999
2001-08-14 07:55:09 51°19.678 2°43.766 290.7 13 290.5 -999
2001-08-14 07:55:13 51°19.683 2°43.744 290.8 13 290.5 -999
2001-08-14 07:55:17 51°19.688 2°43.723 290.5 13 290.6 -999
2001-08-14 07:55:23 51°19.695 2°43.69 290.7 13.1 290.3 -999
2001-08-14 07:55:28 51°19.702 2°43.663 290.8 13.1 290.5 -999
2001-08-14 07:55:33 51°19.708 2°43.636 291 13.1 290.7 -999
2001-08-14 07:55:37 51°19.713 2°43.614 291 13.1 290.7 -999
2001-08-14 07:55:43 51°19.721 2°43.581 290.8 13.1 290.4 -999
2001-08-14 07:55:48 51°19.727 2°43.554 290.3 13.1 290.1 -999
2001-08-14 07:55:53 51°19.733 2°43.527 290.2 13.1 289.9 -999
2001-08-14 07:55:57 51°19.739 2°43.506 290.3 13.1 290 -999
2001-08-14 07:56:03 51°19.746 2°43.473 290.7 13.1 290.1 -999
2001-08-14 07:56:08 51°19.752 2°43.446 290.5 13.1 290.1 -999
2001-08-14 07:56:13 51°19.758 2°43.418 290.3 13.1 289.9 -999
2001-08-14 07:56:17 51°19.763 2°43.396 290.8 13.1 290 -999
2001-08-14 07:56:23 51°19.771 2°43.364 290.5 13.1 290.3 -999
2001-08-14 07:56:28 51°19.777 2°43.337 290.5 13.1 289.9 -999
2001-08-14 07:56:33 51°19.783 2°43.31 290.3 13.1 289.8 -999
2001-08-14 07:56:37 51°19.788 2°43.288 289.8 13.1 289.5 -999
2001-08-14 07:56:43 51°19.795 2°43.255 289.8 13.1 289.6 -999
2001-08-14 07:56:48 51°19.801 2°43.228 290.7 13.1 289.6 -999
2001-08-14 07:56:53 51°19.808 2°43.2 290.3 13.1 290.1 -999
2001-08-14 07:56:57 51°19.812 2°43.179 290.3 13.1 290 -999
2001-08-14 07:57:03 51°19.82 2°43.146 290.7 13.1 289.8 -999
2001-08-14 07:57:08 51°19.826 2°43.119 290.5 13.1 289.7 -999
2001-08-14 07:57:13 51°19.832 2°43.091 290.7 13.1 289.7 -999
2001-08-14 07:57:18 51°19.838 2°43.064 290.8 13.1 289.8 -999
2001-08-14 07:57:23 51°19.844 2°43.037 291.2 13.1 290 -999
2001-08-14 07:57:27 51°19.849 2°43.015 291.5 13.1 290.3 -999
2001-08-14 07:57:33 51°19.857 2°42.982 291.5 13.1 290.4 -999
2001-08-14 07:57:38 51°19.863 2°42.955 291 13.1 290.3 -999
2001-08-14 07:57:43 51°19.87 2°42.927 291 13.1 290.2 -999
2001-08-14 07:57:49 51°19.877 2°42.894 291 13.1 289.9 -999
2001-08-14 07:57:53 51°19.882 2°42.873 290.3 13.1 289.8 -999
2001-08-14 07:57:59 51°19.889 2°42.84 289.5 13 289 -999
2001-08-14 07:58:03 51°19.894 2°42.818 290.3 13 289 -999
2001-08-14 07:58:07 51°19.899 2°42.797 289.8 13 288.9 -999
2001-08-14 07:58:13 51°19.906 2°42.764 290.2 13 289.1 -999
2001-08-14 07:58:17 51°19.91 2°42.742 290.2 13 289.1 -999
2001-08-14 07:58:23 51°19.918 2°42.709 290.5 13.1 289.1 -999
2001-08-14 07:58:28 51°19.923 2°42.681 290 13 289.1 -999
2001-08-14 07:58:33 51°19.929 2°42.654 289.2 13 288.4 -999
2001-08-14 07:58:39 51°19.936 2°42.621 289.2 13.1 287.9 -999
2001-08-14 07:58:43 51°19.94 2°42.599 288.2 13 287.3 -999
2001-08-14 07:58:48 51°19.946 2°42.571 289 13 287.3 -999
2001-08-14 07:58:53 51°19.951 2°42.544 289.7 13.1 287.8 -999
2001-08-14 07:58:57 51°19.956 2°42.522 290 13 288.2 -999
2001-08-14 07:59:03 51°19.963 2°42.489 290.5 13.1 288.9 -999
2001-08-14 07:59:09 51°19.97 2°42.456 290.5 13.1 289 -999
2001-08-14 07:59:13 51°19.975 2°42.434 290.5 13.1 289.5 -999
2001-08-14 07:59:17 51°19.98 2°42.412 291.3 13.1 289.6 -999
2001-08-14 07:59:23 51°19.987 2°42.38 291.2 13 290.1 -999
2001-08-14 07:59:29 51°19.995 2°42.347 291.2 13 289.9 -999
2001-08-14 07:59:33 51°20 2°42.325 291.5 13.1 290.2 -999
2001-08-14 07:59:37 51°20.005 2°42.304 290.8 13.1 289.9 -999
2001-08-14 07:59:43 51°20.012 2°42.271 291.2 13.1 289.8 -999
2001-08-14 07:59:49 51°20.019 2°42.238 290.7 13.1 289.5 -999
2001-08-14 07:59:53 51°20.023 2°42.216 289 13 288.4 22.8
2001-08-14 07:59:57 51°20.027 2°42.194 287.3 13 287.2 22.7
2001-08-14 08:00:01 51°20.031 2°42.172 287.7 12.9 286 23
2001-08-14 08:00:07 51°20.038 2°42.139 288.7 12.9 286.8 23.8
2001-08-14 08:00:13 51°20.044 2°42.106 289.2 13 287.4 23.7
2001-08-14 08:00:17 51°20.049 2°42.085 289.5 13 288 22.7
2001-08-14 08:00:21 51°20.054 2°42.063 290.2 13 288.4 19.9
2001-08-14 08:00:27 51°20.061 2°42.03 290.3 13 289 22.1
2001-08-14 08:00:33 51°20.067 2°41.997 290 13 288.7 22.8
2001-08-14 08:00:37 51°20.072 2°41.976 289.2 13 287.9 22
2001-08-14 08:00:41 51°20.076 2°41.954 288.8 13 287.8 21.6
2001-08-14 08:00:47 51°20.083 2°41.921 289.2 13 287.9 21
2001-08-14 08:00:51 51°20.087 2°41.899 289.5 13 288.1 21.4
2001-08-14 08:00:57 51°20.094 2°41.866 289.7 12.9 288.2 20.6
2001-08-14 08:01:01 51°20.099 2°41.845 290 13 288.9 18.5
2001-08-14 08:01:07 51°20.106 2°41.812 290.5 13 289.4 18.6
2001-08-14 08:01:11 51°20.111 2°41.791 290.8 12.9 289.6 19.7
2001-08-14 08:01:17 51°20.118 2°41.758 290.5 12.9 289.8 19.2
2001-08-14 08:01:21 51°20.123 2°41.737 291.3 12.8 290.1 17.6
2001-08-14 08:01:27 51°20.131 2°41.705 292.5 12.9 291.4 19.1
2001-08-14 08:01:32 51°20.138 2°41.679 293.2 12.9 292.1 19.7
2001-08-14 08:01:37 51°20.145 2°41.652 294 12.9 293 19
2001-08-14 08:01:43 51°20.154 2°41.621 295.2 12.9 293.6 18
2001-08-14 08:01:47 51°20.161 2°41.6 295.3 12.9 294.7 19.7
2001-08-14 08:01:53 51°20.17 2°41.569 295.3 12.9 294.7 19.9
2001-08-14 08:01:57 51°20.176 2°41.549 295.8 12.9 295.2 20.5
2001-08-14 08:02:03 51°20.185 2°41.517 295.8 12.9 295.2 21.7
2001-08-14 08:02:07 51°20.191 2°41.496 295.3 12.9 294.7 22.5
2001-08-14 08:02:11 51°20.196 2°41.475 294.5 12.9 293.9 22.5
2001-08-14 08:02:17 51°20.205 2°41.444 294 13 293.6 23
2001-08-14 08:02:23 51°20.214 2°41.412 293.8 13 293.5 22.9
2001-08-14 08:02:27 51°20.219 2°41.391 293 13 292.9 22.5
2001-08-14 08:02:31 51°20.224 2°41.369 292 13 291.8 22.9
2001-08-14 08:02:37 51°20.232 2°41.337 290.5 13 290.9 22.9
2001-08-14 08:02:43 51°20.239 2°41.304 290 12.9 290 22.5
2001-08-14 08:02:47 51°20.244 2°41.283 290 12.9 289.9 22.6
2001-08-14 08:02:51 51°20.249 2°41.261 290.3 12.9 289.9 21.5
2001-08-14 08:02:57 51°20.257 2°41.229 291 12.9 290.6 21.4
2001-08-14 08:03:03 51°20.265 2°41.198 290.7 12.9 290.8 21.4
2001-08-14 08:03:07 51°20.27 2°41.176 290.8 12.9 291.1 22.4
2001-08-14 08:03:11 51°20.275 2°41.155 291 12.8 291.4 22.9
2001-08-14 08:03:17 51°20.283 2°41.124 291.2 12.8 291.7 22
2001-08-14 08:03:21 51°20.289 2°41.102 291.7 12.8 292.1 22.5
2001-08-14 08:03:27 51°20.297 2°41.071 292 12.8 292.3 22.9
2001-08-14 08:03:33 51°20.305 2°41.039 291.8 12.8 292.5 -999
2001-08-14 08:03:37 51°20.311 2°41.018 292.2 12.8 292.8 -999
2001-08-14 08:03:43 51°20.319 2°40.987 292.3 12.9 293.1 -999
2001-08-14 08:03:47 51°20.324 2°40.966 291.3 12.8 292.3 -999
2001-08-14 08:03:53 51°20.332 2°40.934 291 12.8 291.8 -999
2001-08-14 08:03:57 51°20.337 2°40.913 290.8 12.8 291.3 -999
2001-08-14 08:04:03 51°20.345 2°40.881 290.5 12.8 291.1 -999
2001-08-14 08:04:08 51°20.351 2°40.854 290.3 12.8 290.9 -999
2001-08-14 08:04:13 51°20.358 2°40.827 290 12.9 290.7 -999
2001-08-14 08:04:17 51°20.362 2°40.806 289.7 12.8 290.2 -999
2001-08-14 08:04:23 51°20.37 2°40.774 290 12.8 290.5 -999
2001-08-14 08:04:29 51°20.377 2°40.742 291.2 12.8 290.6 -999
2001-08-14 08:04:33 51°20.383 2°40.721 290.8 12.9 291.6 -999
2001-08-14 08:04:38 51°20.389 2°40.694 291 12.9 291.2 -999
2001-08-14 08:04:43 51°20.396 2°40.668 291.5 12.9 291.4 -999
2001-08-14 08:04:48 51°20.402 2°40.641 290 12.9 291.2 -999
2001-08-14 08:04:53 51°20.408 2°40.614 289 12.9 289.9 -999
2001-08-14 08:04:57 51°20.413 2°40.593 288.7 12.9 289.3 -999
2001-08-14 08:05:03 51°20.42 2°40.56 288.2 12.9 288.7 -999
2001-08-14 08:05:08 51°20.425 2°40.533 288 12.9 288.5 -999
2001-08-14 08:05:13 51°20.431 2°40.506 288.2 12.9 288.2 -999
2001-08-14 08:05:18 51°20.437 2°40.479 288 12.9 288.4 -999
2001-08-14 08:05:23 51°20.442 2°40.452 287.8 12.9 288.2 -999
2001-08-14 08:05:27 51°20.447 2°40.43 288.2 12.9 288.2 -999
2001-08-14 08:05:33 51°20.454 2°40.398 288.7 12.9 288.7 -999
2001-08-14 08:05:39 51°20.461 2°40.365 288.7 12.9 289 -999
2001-08-14 08:05:43 51°20.465 2°40.343 288.8 12.9 289 -999
2001-08-14 08:05:47 51°20.47 2°40.322 289.3 13 289.3 -999
2001-08-14 08:05:53 51°20.478 2°40.289 289.7 13 289.6 -999
2001-08-14 08:05:57 51°20.483 2°40.268 289.3 13 289.7 -999
2001-08-14 08:06:03 51°20.49 2°40.235 288.8 13 289.3 -999
2001-08-14 08:06:09 51°20.496 2°40.202 288.5 13 288.9 -999
2001-08-14 08:06:13 51°20.501 2°40.18 287.5 13 288.2 -999
2001-08-14 08:06:17 51°20.505 2°40.158 287.3 13 287.6 -999
2001-08-14 08:06:23 51°20.512 2°40.125 287.3 13 287.4 -999
2001-08-14 08:06:27 51°20.516 2°40.103 287.8 13 287.6 -999
2001-08-14 08:06:33 51°20.523 2°40.07 288.3 13 288.1 -999
2001-08-14 08:06:39 51°20.53 2°40.038 288.3 13 288.3 -999
2001-08-14 08:06:43 51°20.535 2°40.016 288.8 13 288.7 -999
2001-08-14 08:06:47 51°20.54 2°39.994 289.8 13 289.4 -999
2001-08-14 08:06:53 51°20.547 2°39.961 290.2 13 289.9 -999
2001-08-14 08:06:57 51°20.552 2°39.94 290.7 13.1 290.3 -999
2001-08-14 08:07:03 51°20.56 2°39.907 290.8 13.1 290.6 -999
2001-08-14 08:07:09 51°20.567 2°39.875 290.7 13 290.8 -999
2001-08-14 08:07:13 51°20.573 2°39.853 291 13.1 290.8 -999
2001-08-14 08:07:19 51°20.58 2°39.821 290.7 13.1 290.8 -999
2001-08-14 08:07:23 51°20.586 2°39.799 290.3 13.1 290.6 -999
2001-08-14 08:07:27 51°20.59 2°39.777 289.7 13.1 289.7 -999
2001-08-14 08:07:33 51°20.597 2°39.744 289 13.1 289 -999
2001-08-14 08:07:39 51°20.604 2°39.711 288 13 288.1 -999
2001-08-14 08:07:43 51°20.608 2°39.689 287.3 13 287.5 -999
2001-08-14 08:07:49 51°20.614 2°39.656 287 13 287 -999
2001-08-14 08:07:53 51°20.618 2°39.634 286.7 13 286.4 -999
2001-08-14 08:07:58 51°20.623 2°39.606 286 13 285.9 -999
2001-08-14 08:08:03 51°20.628 2°39.578 285.3 13 285.5 -999
2001-08-14 08:08:08 51°20.633 2°39.55 285.5 13 285.3 -999
2001-08-14 08:08:13 51°20.637 2°39.522 285.3 13 285.4 -999
2001-08-14 08:08:17 51°20.641 2°39.5 285 13 285.1 -999
2001-08-14 08:08:23 51°20.647 2°39.467 284.8 13 284.7 -999
2001-08-14 08:08:29 51°20.652 2°39.434 285 13 284.6 -999
2001-08-14 08:08:33 51°20.656 2°39.411 284.8 12.9 284.6 -999
2001-08-14 08:08:38 51°20.66 2°39.384 284.5 12.9 284.4 -999
2001-08-14 08:08:43 51°20.664 2°39.356 284.2 12.9 284 -999
2001-08-14 08:08:47 51°20.668 2°39.334 284.3 12.9 284 -999
2001-08-14 08:08:53 51°20.673 2°39.3 284.3 12.9 284.2 -999
2001-08-14 08:08:59 51°20.679 2°39.267 285 12.9 284.5 -999
2001-08-14 08:09:03 51°20.683 2°39.245 285 12.9 284.9 -999
2001-08-14 08:09:07 51°20.686 2°39.223 285 12.9 284.6 -999
2001-08-14 08:09:13 51°20.692 2°39.189 284.7 12.9 284.3 -999
2001-08-14 08:09:17 51°20.695 2°39.167 284 12.9 283.7 -999